Terminal Aerodrome Forecast
Issued by NWS

Home | Current Version | Previous Version | Text Only | Print | Product List | Glossary On
Versions: 1 2 3 4 5 6 7 8 9 10 11 12 13 14 15 16 17 18 19 20 21 22 23 24 25 26 27 28 29 30 31 32 33 34 35
922
FTUS43 KDLH 240203 AAA
TAFHIB
TAF AMD
KHIB 240203Z 2402/2424 10009KT P6SM VCSH SCT040 SCT080 OVC140
      TEMPO 2403/2407 -SHRA SCT009 BKN017 OVC035
     FM240700 09011G19KT 5SM BR VCSH BKN009 OVC028
     FM241000 10011G17KT 6SM BR BKN007 OVC025
     FM241600 12014G22KT P6SM BKN022=

USA.gov is the U.S. government's official web portal to all federal, state and local government web resources and services.